Latest Coastal Weather Observations for Aireys Inlet

IDV60701

Issued at 1:41 pm EST Wednesday 27 July 2016 (issued every 10 minutes, with the page automatically refreshed every 10 minutes)

About coastal observations | Map of coastal stations | Coastal observations for VIC | Marine services | Other Formats
Station Details ID: 090180 Name: AIREYS INLET Lat: -38.46 Lon: 144.09 Height: 105.0 m
Data from the previous 72 hours. | See also: Recent months at Aireys Inlet
Date/Time
EST
Temp
°C
Wind Pressure Rain since
9am
mm
Weather Cloud Vis
km
Sea
Height
m
Swell
Dir  Spd
kts
Gust
kts
hPa Trend Height
m
Period
s
Dir
27/01:30pm 10.4 W 12 19 - - 0.0 - - - - - - -
27/01:00pm 9.8 WSW 12 17 - - 0.0 - - - - - - -
27/12:30pm 10.2 W 8 14 - - 0.0 - - - - - - -
27/12:00pm 9.9 WSW 10 18 - - 0.0 - - - - - - -
27/11:30am 9.6 WSW 11 16 - - 0.0 - - - - - - -
27/11:00am 10.2 W 8 14 - - 0.0 - - - - - - -
27/10:30am 9.9 SW 9 14 - - 0.0 - - - - - - -
27/10:00am 9.4 WSW 12 18 - - 0.0 - - - - - - -
27/09:30am 8.9 WSW 11 17 - - 0.0 - - - - - - -
27/09:00am 8.9 WSW 11 20 - - 1.4 - - - - - - -
27/08:30am 8.3 WSW 12 17 - - 1.4 - - - - - - -
27/08:00am 8.3 WSW 15 22 - - 1.4 - - - - - - -
27/07:30am 8.5 SW 15 23 - - 1.4 - - - - - - -
27/07:00am 8.5 SW 18 31 - - 1.4 - - - - - - -
27/06:37am 8.7 WSW 17 27 - - 1.4 - - - - - - -
27/06:30am 8.6 WSW 14 22 - - 1.4 - - - - - - -
27/06:00am 8.4 W 12 17 - - 0.8 Rain - - - - - -
27/05:30am 8.3 W 11 18 - - 0.2 - - - - - - -
27/05:00am 7.9 WNW 11 19 - - 0.2 - - - - - - -
27/04:30am 7.7 WNW 11 17 - - 0.2 - - - - - - -
27/04:00am 7.6 NW 9 15 - - 0.2 - - - - - - -
27/03:30am 7.6 WNW 5 10 - - 0.2 - - - - - - -
27/03:00am 7.5 W 4 9 - - 0.2 - - - - - - -
27/02:30am 8.0 W 4 10 - - 0.2 - - - - - - -
27/02:00am 8.0 NW 15 21 - - 0.2 - - - - - - -
27/01:31am 8.0 NW 19 30 - - 0.2 - - - - - - -
27/01:30am 8.0 NW 17 26 - - 0.2 - - - - - - -
27/01:02am 8.0 NNW 16 27 - - 0.2 - - - - - - -
27/01:00am 8.1 NNW 16 24 - - 0.2 - - - - - - -
27/12:30am 8.1 NNW 10 17 - - 0.2 - - - - - - -
27/12:00am 8.2 NNW 17 30 - - 0.2 - - - - - - -
 
Date/Time
EST
Temp
°C
Wind Pressure Rain since
9am
mm
Weather Cloud Vis
km
Sea
Height
m
Swell
Dir  Spd
kts
Gust
kts
hPa Trend Height
m
Period
s
Dir
26/11:47pm 8.2 NNW 17 27 - - 0.2 - - - - - - -
26/11:30pm 8.3 N 11 21 - - 0.2 - - - - - - -
26/11:00pm 8.4 N 11 18 - - 0.2 - - - - - - -
26/10:30pm 8.0 NNE 8 15 - - 0.2 - - - - - - -
26/10:00pm 7.8 NNE 7 12 - - 0.0 - - - - - - -
26/09:30pm 7.7 NE 7 13 - - 0.0 - - - - - - -
26/09:00pm 7.4 NNE 8 12 - - 0.0 - - - - - - -
26/08:30pm 7.2 NE 8 13 - - 0.0 - - - - - - -
26/08:00pm 7.3 NE 7 12 - - 0.0 - - - - - - -
26/07:30pm 7.4 NNE 9 15 - - 0.0 - - - - - - -
26/07:00pm 7.2 NNE 10 16 - - 0.0 - - - - - - -
26/06:30pm 6.9 NNE 8 13 - - 0.0 - - - - - - -
26/06:00pm 7.5 NNE 9 17 - - 0.0 - - - - - - -
26/05:30pm 8.0 N 12 21 - - 0.0 - - - - - - -
26/05:00pm 8.5 N 14 25 - - 0.0 - - - - - - -
26/04:30pm 8.7 N 13 22 - - 0.0 - - - - - - -
26/04:00pm 9.2 N 14 25 - - 0.0 - - - - - - -
26/03:30pm 9.3 N 12 23 - - 0.0 - - - - - - -
26/03:00pm 8.7 N 12 20 - - 0.0 - - - - - - -
26/02:30pm 8.3 NNW 10 19 - - 0.0 - - - - - - -
26/02:00pm 8.3 NNW 11 22 - - 0.0 - - - - - - -
26/01:30pm 8.3 NNW 11 20 - - 0.0 - - - - - - -
26/01:00pm 8.5 NNW 10 17 - - 0.0 - - - - - - -
26/12:30pm 8.4 NNW 11 19 - - 0.0 - - - - - - -
26/12:00pm 8.0 NNW 12 19 - - 0.0 - - - - - - -
26/11:30am 7.7 NNW 14 21 - - 0.0 - - - - - - -
26/11:00am 7.2 NW 18 25 - - 0.0 - - - - - - -
26/10:49am 6.6 NNW 17 27 - - 0.0 - - - - - - -
26/10:30am 6.3 NW 18 26 - - 0.0 - - - - - - -
26/10:00am 5.4 NW 17 24 - - 0.0 - - - - - - -
26/09:30am 5.3 NW 18 26 - - 0.0 - - - - - - -
26/09:00am 5.4 NW 17 26 - - 10.0 - - - - - - -
26/08:30am 5.2 NW 17 25 - - 10.0 - - - - - - -
26/08:24am 5.1 NW 15 25 - - 10.0 - - - - - - -
26/08:00am 5.1 NW 14 21 - - 10.0 - - - - - - -
26/07:30am 5.0 NW 13 21 - - 10.0 - - - - - - -
26/07:00am 4.9 NW 14 20 - - 10.0 - - - - - - -
26/06:30am 5.0 WNW 11 17 - - 10.0 - - - - - - -
26/06:00am 5.2 WNW 18 28 - - 10.0 - - - - - - -
26/05:42am 5.2 NW 15 26 - - 10.0 - - - - - - -
26/05:30am 5.0 WNW 15 21 - - 10.0 - - - - - - -
26/05:00am 5.2 WNW 12 18 - - 10.0 - - - - - - -
26/04:30am 5.2 WNW 12 18 - - 10.0 - - - - - - -
26/04:00am 5.4 NW 10 17 - - 10.0 - - - - - - -
26/03:30am 5.2 WNW 9 15 - - 10.0 - - - - - - -
26/03:00am 5.1 NW 10 18 - - 10.0 Rain - - - - - -
26/02:30am 5.1 WNW 12 22 - - 9.8 - - - - - - -
26/02:00am 5.1 WNW 14 21 - - 9.8 - - - - - - -
26/01:47am 5.3 NW 15 27 - - 9.6 - - - - - - -
26/01:30am 5.2 NW 13 19 - - 9.6 - - - - - - -
26/01:00am 5.1 NW 12 19 - - 9.4 - - - - - - -
26/12:34am 5.2 WNW 17 27 - - 9.4 - - - - - - -
26/12:30am 5.1 WNW 18 28 - - 9.4 - - - - - - -
26/12:00am 5.7 WNW 17 28 - - 9.0 Recent precip. - - - - - -
 
Date/Time
EST
Temp
°C
Wind Pressure Rain since
9am
mm
Weather Cloud Vis
km
Sea
Height
m
Swell
Dir  Spd
kts
Gust
kts
hPa Trend Height
m
Period
s
Dir
25/11:30pm 5.4 NW 20 30 - - 8.8 - - - - - - -
25/11:00pm 5.2 WNW 19 31 - - 8.8 - - - - - - -
25/10:40pm 5.5 WNW 18 29 - - 8.6 - - - - - - -
25/10:30pm 5.5 WNW 20 29 - - 8.6 - - - - - - -
25/10:00pm 5.9 WNW 18 30 - - 8.6 - - - - - - -
25/09:30pm 5.5 WNW 18 29 - - 8.4 - - - - - - -
25/09:01pm 6.6 WNW 17 29 - - 7.8 - - - - - - -
25/09:00pm 6.7 WNW 16 25 - - 7.8 Rain - - - - - -
25/08:30pm 6.9 WNW 16 28 - - 7.6 - - - - - - -
25/08:00pm 7.2 WNW 20 30 - - 7.6 - - - - - - -
25/07:30pm 7.4 WNW 19 30 - - 7.6 - - - - - - -
25/07:18pm 7.0 W 20 37 - - 7.6 - - - - - - -
25/07:05pm 7.7 W 16 26 - - 7.6 - - - - - - -
25/07:00pm 7.8 WNW 17 26 - - 7.6 - - - - - - -
25/06:30pm 8.6 WNW 19 36 - - 7.4 - - - - - - -
25/06:08pm 8.5 NW 24 42 - - 7.4 - - - - - - -
25/06:00pm 8.2 NW 20 32 - - 7.4 Recent precip. - - - - - -
25/05:30pm 8.2 NW 23 36 - - 7.4 - - - - - - -
25/05:00pm 8.9 WNW 22 44 - - 7.0 - - - - - - -
25/04:57pm 9.1 WNW 21 44 - - 6.6 - - - - - - -
25/04:45pm 9.4 NW 20 34 - - 4.8 - - - - - - -
25/04:44pm 9.4 NW 20 34 - - 4.4 - - - - - - -
25/04:30pm 9.7 NNW 20 37 - - 2.2 - - - - - - -
25/04:00pm 10.3 NNW 18 29 - - 0.4 - - - - - - -
25/03:30pm 11.5 NNW 22 37 - - 0.0 - - - - - - -
25/03:00pm 11.5 NNW 26 41 - - 0.0 - - - - - - -
25/02:30pm 12.2 NNW 26 38 - - 0.0 - - - - - - -
25/02:00pm 12.4 NW 24 38 - - 0.0 - - - - - - -
25/01:30pm 12.7 NW 19 37 - - 0.0 - - - - - - -
25/01:04pm 12.4 NW 15 31 - - 0.0 - - - - - - -
25/01:00pm 12.4 NNW 14 31 - - 0.0 - - - - - - -
25/12:31pm 12.1 NW 15 25 - - 0.0 - - - - - - -
25/12:30pm 12.1 NNW 16 25 - - 0.0 - - - - - - -
25/12:08pm 12.0 NW 15 26 - - 0.0 - - - - - - -
25/12:00pm 12.2 NW 13 25 - - 0.0 - - - - - - -
25/11:30am 10.8 NW 11 21 - - 0.0 - - - - - - -
25/11:00am 10.4 NW 9 16 - - 0.0 - - - - - - -
25/10:30am 9.9 NW 10 21 - - 0.0 - - - - - - -
25/10:00am 9.3 NW 10 19 - - 0.0 - - - - - - -
25/09:30am 8.7 NW 12 18 - - 0.0 - - - - - - -
25/09:00am 8.3 NW 13 22 - - 0.0 - - - - - - -
25/08:30am 8.0 NW 14 24 - - 0.0 - - - - - - -
25/08:00am 7.7 NW 12 19 - - 0.0 - - - - - - -
25/07:30am 7.6 WNW 14 21 - - 0.0 - - - - - - -
25/07:00am 7.3 WNW 16 25 - - 0.0 - - - - - - -
25/06:30am 7.2 NW 16 27 - - 0.0 - - - - - - -
25/06:03am 7.1 NW 18 28 - - 0.0 - - - - - - -
25/06:00am 7.1 NW 19 29 - - 0.0 - - - - - - -
25/05:30am 7.2 NW 20 33 - - 0.0 - - - - - - -
25/05:24am 7.2 NW 20 33 - - 0.0 - - - - - - -
25/05:00am 7.0 NW 21 29 - - 0.0 - - - - - - -
25/04:34am 6.8 NW 21 31 - - 0.0 - - - - - - -
25/04:30am 6.7 NW 22 31 - - 0.0 - - - - - - -
25/04:00am 6.5 NW 23 34 - - 0.0 - - - - - - -
25/03:30am 6.8 WNW 19 31 - - 0.0 - - - - - - -
25/03:20am 6.9 NW 15 33 - - 0.0 - - - - - - -
25/03:00am 7.1 WNW 8 18 - - 0.0 - - - - - - -
25/02:30am 7.1 NW 13 20 - - 0.0 - - - - - - -
25/02:00am 7.2 NNW 11 21 - - 0.0 - - - - - - -
25/01:30am 7.1 NW 12 21 - - 0.0 - - - - - - -
25/01:00am 7.1 NW 9 17 - - 0.0 - - - - - - -
25/12:30am 6.9 NNW 9 18 - - 0.0 - - - - - - -
25/12:00am 6.9 NNW 10 18 - - 0.0 - - - - - - -
 
Date/Time
EST
Temp
°C
Wind Pressure Rain since
9am
mm
Weather Cloud Vis
km
Sea
Height
m
Swell
Dir  Spd
kts
Gust
kts
hPa Trend Height
m
Period
s
Dir
24/11:30pm 7.2 NNW 13 24 - - 0.0 - - - - - - -
24/11:00pm 7.4 NNW 12 21 - - 0.0 - - - - - - -
24/10:30pm 7.5 NNW 10 17 - - 0.0 - - - - - - -
24/10:00pm 7.6 N 5 14 - - 0.0 - - - - - - -
24/09:30pm 7.9 NNW 17 28 - - 0.0 - - - - - - -
24/09:14pm 8.0 NNW 16 27 - - 0.0 - - - - - - -
24/09:00pm 8.0 NNW 15 23 - - 0.0 - - - - - - -
24/08:33pm 8.2 NNW 16 26 - - 0.0 - - - - - - -
24/08:30pm 8.3 NNW 17 26 - - 0.0 - - - - - - -
24/08:27pm 8.3 NW 16 26 - - 0.0 - - - - - - -
24/08:00pm 8.5 NNW 9 16 - - 0.0 - - - - - - -
24/07:30pm 8.7 N 10 17 - - 0.0 - - - - - - -
24/07:00pm 8.8 N 14 23 - - 0.0 - - - - - - -
24/06:30pm 8.7 N 12 18 - - 0.0 - - - - - - -
24/06:00pm 8.8 N 11 15 - - 0.0 - - - - - - -
24/05:30pm 9.2 N 13 19 - - 0.0 - - - - - - -
24/05:00pm 9.6 N 15 23 - - 0.0 - - - - - - -
24/04:30pm 9.7 N 16 26 - - 0.0 - - - - - - -
24/04:29pm 9.7 NNW 16 26 - - 0.0 - - - - - - -
24/04:00pm 9.4 NNW 12 17 - - 0.0 - - - - - - -
24/03:30pm 8.9 NNW 14 23 - - 0.0 - - - - - - -
24/03:00pm 9.4 NNW 20 38 - - 0.0 - - - - - - -
24/02:30pm 9.9 NNW 11 31 - - 0.0 - - - - - - -
24/02:27pm 9.9 NNW 10 29 - - 0.0 - - - - - - -
24/02:00pm 10.3 N 10 17 - - 0.0 - - - - - - -

Other Formats:

Comma delimited format used in spreadsheet applications
http://www.bom.gov.au/fwo/IDV60701/IDV60701.94846.axf

JavaScript Object Notation format (JSON) in row-major order
http://www.bom.gov.au/fwo/IDV60701/IDV60701.94846.json